Time;durP1;ratioP1;P1;durP2;ratioP2;P2;SDS_P1;SDS_P2;PMS_P1;PMS_P2;Temp;Humidity;BMP_temperature;BMP_pressure;BME280_temperature;BME280_humidity;BME280_pressure;Samples;Min_cycle;Max_cycle;Signal;HPM_P1;HPM_P2
2022/12/30 00:02:38;;;;;;;1999.90;999.90;;;7.10;99.90;;;;;;6704415;88;20216;-76
2022/12/30 00:33:27;;;;;;;1999.90;999.90;;;7.10;99.90;;;;;;6706743;88;20222;-77
2022/12/30 00:43:27;;;;;;;1999.90;999.90;;;6.90;99.90;;;;;;6706621;88;20199;-76
2022/12/30 01:03:48;;;;;;;1999.90;999.90;;;6.80;99.90;;;;;;6707202;88;20183;-77
2022/12/30 01:13:48;;;;;;;1999.90;999.90;;;6.70;99.90;;;;;;6708224;88;20730;-77
2022/12/30 01:23:49;;;;;;;1999.90;999.90;;;5.90;99.90;;;;;;6691383;88;20307;-77
2022/12/30 01:33:50;;;;;;;1999.90;999.90;;;5.40;99.90;;;;;;6687303;88;20202;-76
2022/12/30 01:43:50;;;;;;;1999.90;999.90;;;5.20;99.90;;;;;;6701074;88;20248;-76
2022/12/30 01:53:51;;;;;;;1999.90;999.90;;;5.00;99.90;;;;;;6708663;88;20203;-77
2022/12/30 02:04:00;;;;;;;1999.90;999.90;;;4.90;99.90;;;;;;6708148;88;20212;-77
2022/12/30 02:14:01;;;;;;;1999.90;999.90;;;4.80;99.90;;;;;;6703149;88;20200;-78
2022/12/30 02:24:30;;;;;;;1999.90;999.90;;;5.00;99.90;;;;;;6706545;88;20622;-77
2022/12/30 02:34:54;;;;;;;1999.90;999.90;;;5.60;99.90;;;;;;6709330;88;20345;-77
2022/12/30 02:45:07;;;;;;;1999.90;999.90;;;5.70;99.90;;;;;;6692002;88;20240;-78
2022/12/30 02:55:08;;;;;;;1999.90;999.90;;;5.40;99.90;;;;;;6693169;88;20302;-77
2022/12/30 03:05:15;;;;;;;1999.90;999.90;;;5.00;99.90;;;;;;6707952;88;20293;-77
2022/12/30 03:15:22;;;;;;;1999.90;999.90;;;4.70;99.90;;;;;;6709223;88;20209;-77
2022/12/30 03:36:07;;;;;;;1999.90;999.90;;;4.30;99.90;;;;;;6708212;88;20190;-77
2022/12/30 03:46:07;;;;;;;1999.90;999.90;;;4.40;99.90;;;;;;6691695;88;20241;-77
2022/12/30 03:56:08;;;;;;;1999.90;999.90;;;4.60;99.90;;;;;;6701724;88;20194;-77
2022/12/30 04:06:09;;;;;;;1999.90;999.90;;;4.40;99.90;;;;;;6711152;88;20253;-77
2022/12/30 04:16:09;;;;;;;1999.90;999.90;;;4.30;99.90;;;;;;6711589;88;21121;-78
2022/12/30 04:26:10;;;;;;;1999.90;999.90;;;4.50;99.90;;;;;;6711098;88;20541;-78
2022/12/30 04:36:10;;;;;;;1999.90;999.90;;;4.60;99.90;;;;;;6711372;88;20524;-78
2022/12/30 04:46:11;;;;;;;1999.90;999.90;;;4.40;99.90;;;;;;6707334;88;20947;-78
2022/12/30 04:56:12;;;;;;;1999.90;999.90;;;4.70;99.90;;;;;;6709930;88;20190;-78
2022/12/30 05:06:12;;;;;;;1999.90;999.90;;;4.80;99.90;;;;;;6711173;88;20225;-78
2022/12/30 05:16:13;;;;;;;1999.90;999.90;;;5.00;99.90;;;;;;6708763;88;20224;-77
2022/12/30 05:26:15;;;;;;;1999.90;999.90;;;5.30;99.90;;;;;;6709797;88;20282;-78
2022/12/30 05:36:16;;;;;;;1999.90;999.90;;;5.50;99.90;;;;;;6709325;88;20216;-78
2022/12/30 05:46:17;;;;;;;1999.90;999.90;;;5.60;99.90;;;;;;6707850;88;20236;-77
2022/12/30 05:56:17;;;;;;;1999.90;999.90;;;5.50;99.90;;;;;;6704261;88;20194;-77
2022/12/30 06:06:18;;;;;;;1999.90;999.90;;;5.40;99.90;;;;;;6704336;88;21101;-77
2022/12/30 06:16:18;;;;;;;1999.90;999.90;;;5.20;99.90;;;;;;6704409;88;20197;-77
2022/12/30 06:26:19;;;;;;;1999.90;999.90;;;5.20;99.90;;;;;;6704352;88;20207;-77
2022/12/30 06:36:19;;;;;;;1999.90;999.90;;;5.40;99.90;;;;;;6705547;88;20242;-80
2022/12/30 06:46:20;;;;;;;1999.90;999.90;;;5.50;99.90;;;;;;6707408;88;20225;-77
2022/12/30 06:56:20;;;;;;;1999.90;999.90;;;5.50;99.90;;;;;;6706285;88;20250;-77
2022/12/30 07:06:21;;;;;;;1999.90;999.90;;;5.70;99.90;;;;;;6694742;88;20558;-77
2022/12/30 07:16:21;;;;;;;1999.90;999.90;;;5.70;99.90;;;;;;6704083;88;20205;-77
2022/12/30 07:26:22;;;;;;;1999.90;999.90;;;5.80;99.90;;;;;;6704088;88;20674;-77
2022/12/30 07:36:22;;;;;;;1999.90;999.90;;;5.90;99.90;;;;;;6704123;88;20691;-77
2022/12/30 07:46:23;;;;;;;1999.90;999.90;;;6.10;99.90;;;;;;6705086;88;20322;-77
2022/12/30 07:56:24;;;;;;;1999.90;999.90;;;6.50;99.90;;;;;;6706719;88;20231;-78
2022/12/30 08:06:24;;;;;;;1999.90;999.90;;;6.80;99.90;;;;;;6707152;88;20511;-77
2022/12/30 08:16:25;;;;;;;1999.90;999.90;;;7.00;99.90;;;;;;6702260;88;20280;-76
2022/12/30 08:26:26;;;;;;;1999.90;999.90;;;7.10;99.90;;;;;;6698731;88;20181;-77
2022/12/30 08:36:28;;;;;;;1999.90;999.90;;;7.30;99.90;;;;;;6703945;88;20659;-77
2022/12/30 08:46:31;;;;;;;1999.90;999.90;;;7.40;99.90;;;;;;6708249;88;20619;-78
2022/12/30 08:56:34;;;;;;;1999.90;999.90;;;7.70;99.90;;;;;;6706337;88;20265;-77
2022/12/30 09:06:37;;;;;;;1999.90;999.90;;;7.80;99.90;;;;;;6709367;88;20211;-77
2022/12/30 09:16:38;;;;;;;1999.90;999.90;;;8.00;99.90;;;;;;6710060;88;20206;-78
2022/12/30 09:26:39;;;;;;;1999.90;999.90;;;8.20;99.90;;;;;;6708611;88;20293;-78
2022/12/30 09:36:39;;;;;;;1999.90;999.90;;;8.30;99.90;;;;;;6720590;88;20221;-78
2022/12/30 09:46:50;;;;;;;1999.90;999.90;;;8.50;99.90;;;;;;6707564;88;20700;-78
2022/12/30 09:56:57;;;;;;;1999.90;999.90;;;8.60;99.90;;;;;;6707281;88;20167;-78
2022/12/30 10:07:13;;;;;;;1999.90;999.90;;;8.70;99.90;;;;;;6704428;88;20599;-79
2022/12/30 10:17:43;;;;;;;1999.90;999.90;;;8.70;99.90;;;;;;6702494;88;20211;-77
2022/12/30 10:27:45;;;;;;;1999.90;999.90;;;8.80;99.90;;;;;;6713422;88;20206;-78
2022/12/30 10:37:49;;;;;;;1999.90;999.90;;;8.90;99.90;;;;;;6709768;88;20738;-78
2022/12/30 10:48:14;;;;;;;1999.90;999.90;;;9.00;99.90;;;;;;6714268;88;20241;-78
2022/12/30 10:58:37;;;;;;;1999.90;999.90;;;9.00;99.90;;;;;;6696460;88;20226;-78
2022/12/30 11:08:37;;;;;;;1999.90;999.90;;;9.10;99.90;;;;;;6694773;88;20704;-78
2022/12/30 11:18:42;;;;;;;1999.90;999.90;;;9.00;99.90;;;;;;6697649;88;20317;-78
2022/12/30 11:28:49;;;;;;;1999.90;999.90;;;9.00;99.90;;;;;;6701980;88;20206;-78
2022/12/30 11:38:50;;;;;;;;;;;9.00;99.90;;;;;;6699073;88;20371;-79
2022/12/30 11:48:55;;;;;;;1999.90;999.90;;;9.00;99.90;;;;;;6711842;77;20069;-75
2022/12/30 11:59:05;;;;;;;1999.90;999.90;;;9.00;99.90;;;;;;6691766;88;20203;-75
2022/12/30 12:09:14;;;;;;;1999.90;999.90;;;9.00;99.90;;;;;;6692428;88;20166;-75
2022/12/30 12:19:33;;;;;;;1999.90;999.90;;;9.00;99.90;;;;;;6696620;88;20300;-74
2022/12/30 12:29:35;;;;;;;1999.90;999.90;;;8.90;99.90;;;;;;6700824;88;20310;-76
2022/12/30 12:39:57;;;;;;;1999.90;999.90;;;9.00;99.90;;;;;;6701417;88;20185;-76
2022/12/30 12:50:48;;;;;;;1999.90;999.90;;;8.90;99.90;;;;;;6704636;88;20194;-77
2022/12/30 13:01:03;;;;;;;1999.90;999.90;;;9.10;99.90;;;;;;6698920;88;20598;-75
2022/12/30 13:11:16;;;;;;;1999.90;999.90;;;9.10;99.90;;;;;;6707438;88;20815;-76
2022/12/30 13:21:24;;;;;;;1999.90;999.90;;;9.10;99.90;;;;;;6705195;88;20210;-78
2022/12/30 13:31:46;;;;;;;1999.90;999.90;;;9.10;99.90;;;;;;6702367;88;20614;-76
2022/12/30 13:42:04;;;;;;;1999.90;999.90;;;9.00;99.90;;;;;;6694735;88;20683;-77
2022/12/30 13:52:26;;;;;;;1999.90;999.90;;;9.00;99.90;;;;;;6700976;88;20627;-74
2022/12/30 14:02:47;;;;;;;1999.90;999.90;;;9.00;99.90;;;;;;6703863;88;20636;-76
2022/12/30 14:12:54;;;;;;;1999.90;999.90;;;8.90;99.90;;;;;;6700591;88;20194;-75
2022/12/30 14:22:58;;;;;;;1999.90;999.90;;;9.10;99.90;;;;;;6701578;88;20208;-76
2022/12/30 14:33:26;;;;;;;1999.90;999.90;;;9.20;99.90;;;;;;6700766;88;20207;-75
2022/12/30 14:43:28;;;;;;;1999.90;999.90;;;9.30;99.90;;;;;;6699539;88;20259;-76
2022/12/30 14:53:29;;;;;;;1999.90;999.90;;;9.40;99.90;;;;;;6703173;88;20190;-77
2022/12/30 15:03:30;;;;;;;1999.90;999.90;;;9.20;99.90;;;;;;6699738;88;20182;-76
2022/12/30 15:13:46;;;;;;;1999.90;999.90;;;9.00;99.90;;;;;;6700087;88;20268;-75
2022/12/30 15:23:57;;;;;;;1999.90;999.90;;;8.70;99.90;;;;;;6700616;88;20205;-76
2022/12/30 15:34:02;;;;;;;1999.90;999.90;;;8.50;99.90;;;;;;6697697;88;20182;-76
2022/12/30 15:44:12;;;;;;;1999.90;999.90;;;8.60;99.90;;;;;;6701446;88;20190;-77
2022/12/30 15:54:37;;;;;;;1999.90;999.90;;;8.70;99.90;;;;;;6688649;88;20549;-76
2022/12/30 16:04:42;;;;;;;1999.90;999.90;;;8.80;99.90;;;;;;6687596;88;20221;-75
2022/12/30 16:14:43;;;;;;;1999.90;999.90;;;8.90;99.90;;;;;;6683975;88;20202;-76
2022/12/30 16:24:49;;;;;;;1999.90;999.90;;;9.20;99.90;;;;;;6704029;88;20242;-76
2022/12/30 16:34:50;;;;;;;;;;;10.00;99.90;;;;;;6715361;88;20528;-76
2022/12/30 16:44:51;;;;;;;1999.90;999.90;;;10.60;99.90;;;;;;6716424;88;20057;-76
2022/12/30 16:54:52;;;;;;;1999.90;999.90;;;10.90;99.90;;;;;;6707106;88;20186;-75
2022/12/30 17:04:52;;;;;;;1999.90;999.90;;;11.10;99.90;;;;;;6707574;88;20198;-76
2022/12/30 17:14:53;;;;;;;1999.90;999.90;;;11.20;99.90;;;;;;6704913;88;20313;-75
2022/12/30 17:24:54;;;;;;;1999.90;999.90;;;11.20;99.90;;;;;;6703027;88;20381;-76
2022/12/30 17:34:54;;;;;;;1999.90;999.90;;;11.30;99.90;;;;;;6707616;88;20629;-77
2022/12/30 17:44:55;;;;;;;1999.90;999.90;;;11.30;99.90;;;;;;6706038;88;20612;-76
2022/12/30 17:54:55;;;;;;;1999.90;999.90;;;11.30;99.90;;;;;;6725210;77;20681;-76
2022/12/30 18:04:56;;;;;;;1999.90;999.90;;;11.40;99.90;;;;;;6710729;88;20668;-78
2022/12/30 18:14:59;;;;;;;1999.90;999.90;;;11.40;99.90;;;;;;6692672;88;21401;-75
2022/12/30 18:25:00;;;;;;;1999.90;999.90;;;11.50;99.90;;;;;;6697710;88;20217;-76
2022/12/30 18:35:01;;;;;;;1999.90;999.90;;;11.60;99.90;;;;;;6700071;88;20207;-75
2022/12/30 18:45:03;;;;;;;1999.90;999.90;;;11.70;99.90;;;;;;6699022;88;20194;-76
2022/12/30 18:55:04;;;;;;;1999.90;999.90;;;11.70;99.90;;;;;;6702454;88;20396;-75
2022/12/30 19:05:04;;;;;;;1999.90;999.90;;;11.60;99.90;;;;;;6711810;88;20768;-75
2022/12/30 19:15:06;;;;;;;1999.90;999.90;;;11.80;99.90;;;;;;6703204;88;20297;-76
2022/12/30 19:25:07;;;;;;;1999.90;999.90;;;11.90;99.90;;;;;;6698157;88;20216;-75
2022/12/30 19:35:08;;;;;;;1999.90;999.90;;;12.00;99.90;;;;;;6705602;88;20254;-75
2022/12/30 19:45:09;;;;;;;1999.90;999.90;;;12.10;99.90;;;;;;6697996;88;20329;-75
2022/12/30 19:55:09;;;;;;;1999.90;999.90;;;12.20;99.90;;;;;;6694455;88;20277;-75
2022/12/30 20:05:11;;;;;;;1999.90;999.90;;;12.40;99.90;;;;;;6696324;88;20228;-75
2022/12/30 20:15:11;;;;;;;1999.90;999.90;;;12.60;99.90;;;;;;6697495;88;20182;-75
2022/12/30 20:25:13;;;;;;;1999.90;999.90;;;12.60;99.90;;;;;;6703652;88;20983;-77
2022/12/30 20:35:14;;;;;;;1999.90;999.90;;;12.70;99.90;;;;;;6711202;88;20231;-75
2022/12/30 20:45:14;;;;;;;1999.90;999.90;;;12.70;99.90;;;;;;6705520;88;20641;-75
2022/12/30 20:55:15;;;;;;;1999.90;999.90;;;12.80;99.90;;;;;;6698839;88;20206;-76
2022/12/30 21:05:15;;;;;;;1999.90;999.90;;;12.70;99.90;;;;;;6699178;88;20286;-77
2022/12/30 21:15:16;;;;;;;1999.90;999.90;;;12.80;99.90;;;;;;6702133;88;20311;-77
2022/12/30 21:25:17;;;;;;;1999.90;999.90;;;12.80;99.90;;;;;;6704946;88;20244;-76
2022/12/30 21:35:17;;;;;;;1999.90;999.90;;;12.80;99.90;;;;;;6697277;88;20279;-76
2022/12/30 22:05:56;;;;;;;1999.90;999.90;;;13.10;99.90;;;;;;6696350;88;20219;-78
2022/12/30 22:15:57;;;;;;;1999.90;999.90;;;13.30;99.90;;;;;;6697567;88;20293;-77
2022/12/30 22:26:01;;;;;;;1999.90;999.90;;;13.30;99.90;;;;;;6703128;88;20204;-76
2022/12/30 22:36:04;;;;;;;1999.90;999.90;;;13.40;99.90;;;;;;6694805;88;20182;-75
2022/12/30 22:46:09;;;;;;;1999.90;999.90;;;13.50;99.90;;;;;;6683491;88;20290;-75
2022/12/30 22:56:10;;;;;;;1999.90;999.90;;;13.70;99.90;;;;;;6701371;88;20212;-75
2022/12/30 23:06:11;;;;;;;1999.90;999.90;;;13.70;99.90;;;;;;6698143;88;20173;-75
2022/12/30 23:16:11;;;;;;;1999.90;999.90;;;13.80;99.90;;;;;;6701229;88;20231;-75
2022/12/30 23:26:12;;;;;;;1999.90;999.90;;;13.90;99.90;;;;;;6714272;88;20208;-76
2022/12/30 23:36:20;;;;;;;1999.90;999.90;;;14.00;99.90;;;;;;6698670;88;20223;-76
2022/12/30 23:56:26;;;;;;;1999.90;999.90;;;14.30;99.90;;;;;;6729605;88;20535;-79
